Time;durP1;ratioP1;P1;durP2;ratioP2;P2;SDS_P1;SDS_P2;PMS_P1;PMS_P2;Temp;Humidity;BMP_temperature;BMP_pressure;BME280_temperature;BME280_humidity;BME280_pressure;Samples;Min_cycle;Max_cycle;Signal;HPM_P1;HPM_P2
2021/09/26 00:02:22;;;;;;;4.18;1.80;;;22.40;57.80;;;;;;5133822;28;20024;-62
2021/09/26 00:04:48;;;;;;;4.47;1.98;;;22.40;57.80;;;;;;5134143;28;20023;-63
2021/09/26 00:07:13;;;;;;;4.20;1.90;;;22.40;57.80;;;;;;5115539;28;20023;-63
2021/09/26 00:09:39;;;;;;;4.40;2.03;;;22.40;57.80;;;;;;5133815;28;20065;-63
2021/09/26 00:12:05;;;;;;;4.28;1.90;;;22.40;57.80;;;;;;5135428;27;20055;-63
2021/09/26 00:14:30;;;;;;;4.57;1.75;;;22.40;57.80;;;;;;5137873;27;20023;-63
2021/09/26 00:16:58;;;;;;;3.08;1.70;;;22.40;57.80;;;;;;5137896;27;20064;-62
2021/09/26 00:19:27;;;;;;;4.30;2.10;;;22.40;57.80;;;;;;5137978;27;20031;-63
2021/09/26 00:21:53;;;;;;;3.75;1.67;;;22.30;57.80;;;;;;5137807;27;20084;-63
2021/09/26 00:24:19;;;;;;;3.95;1.98;;;22.40;57.90;;;;;;5137785;27;20058;-63
2021/09/26 00:26:44;;;;;;;3.75;1.80;;;22.40;57.80;;;;;;5137657;27;20031;-63
2021/09/26 00:29:10;;;;;;;4.28;1.80;;;22.40;57.90;;;;;;5137662;27;20056;-63
2021/09/26 00:31:36;;;;;;;3.58;1.73;;;22.40;57.90;;;;;;5137783;27;20019;-63
2021/09/26 00:34:01;;;;;;;4.43;2.08;;;22.30;57.80;;;;;;5137597;27;20023;-62
2021/09/26 00:36:27;;;;;;;3.95;2.03;;;22.40;57.80;;;;;;5137530;27;20030;-63
2021/09/26 00:38:52;;;;;;;4.95;2.10;;;22.30;57.90;;;;;;5137199;27;20054;-63
2021/09/26 00:41:18;;;;;;;3.47;1.90;;;22.30;57.90;;;;;;5137432;27;20030;-62
2021/09/26 00:43:44;;;;;;;4.15;2.22;;;22.30;57.90;;;;;;5137554;27;20023;-63
2021/09/26 00:46:09;;;;;;;4.43;2.10;;;22.30;57.90;;;;;;5137371;27;20048;-63
2021/09/26 00:48:35;;;;;;;4.22;2.00;;;22.30;57.90;;;;;;5137375;27;20498;-63
2021/09/26 00:51:01;;;;;;;4.50;2.28;;;22.30;57.90;;;;;;5137200;27;20027;-63
2021/09/26 00:53:27;;;;;;;3.38;1.67;;;22.30;57.90;;;;;;5137174;27;20381;-63
2021/09/26 00:55:57;;;;;;;3.50;1.67;;;22.30;57.90;;;;;;5137310;27;20114;-63
2021/09/26 00:58:24;;;;;;;4.10;1.92;;;22.30;57.90;;;;;;5137055;27;20347;-63
2021/09/26 01:00:49;;;;;;;4.13;2.10;;;22.30;57.90;;;;;;5118552;27;20058;-63
2021/09/26 01:03:15;;;;;;;5.55;2.28;;;22.30;57.90;;;;;;5137149;27;20466;-63
2021/09/26 01:05:40;;;;;;;4.22;2.15;;;22.30;57.90;;;;;;5137020;27;20057;-63
2021/09/26 01:08:15;;;;;;;3.72;1.63;;;22.30;57.90;;;;;;5136871;27;20103;-63
2021/09/26 01:10:46;;;;;;;;;;;22.30;58.00;;;;;;5137505;27;20068;-63
2021/09/26 01:13:11;;;;;;;4.57;1.90;;;22.30;58.00;;;;;;5136832;27;19907;-63
2021/09/26 01:15:56;;;;;;;4.63;2.05;;;22.30;57.90;;;;;;5118223;27;20050;-63
2021/09/26 01:18:24;;;;;;;3.88;1.70;;;22.30;58.00;;;;;;5136728;27;20062;-63
2021/09/26 01:21:07;;;;;;;3.28;1.65;;;22.20;58.00;;;;;;5136592;27;20533;-63
2021/09/26 01:24:04;;;;;;;4.03;1.90;;;22.20;58.10;;;;;;5135905;27;20050;-63
2021/09/26 01:27:09;;;;;;;4.00;1.95;;;22.20;58.00;;;;;;5129085;27;20059;-63
2021/09/26 01:30:05;;;;;;;3.70;1.90;;;22.20;58.00;;;;;;5136514;27;20019;-63
2021/09/26 01:32:34;;;;;;;3.58;1.83;;;22.20;58.00;;;;;;5136740;27;20039;-63
2021/09/26 01:35:04;;;;;;;4.47;1.90;;;22.20;58.10;;;;;;5136400;27;20033;-63
2021/09/26 01:37:48;;;;;;;5.07;2.00;;;22.20;58.10;;;;;;5136152;27;20040;-63
2021/09/26 01:40:27;;;;;;;4.65;1.73;;;22.20;58.10;;;;;;5136306;27;20027;-63
2021/09/26 01:42:57;;;;;;;4.30;2.13;;;22.20;58.00;;;;;;5136370;27;20034;-63
2021/09/26 01:45:34;;;;;;;3.03;1.75;;;22.20;58.10;;;;;;5136163;27;20526;-62
2021/09/26 01:48:19;;;;;;;4.28;2.10;;;22.20;58.10;;;;;;5136245;27;20492;-63
2021/09/26 01:50:50;;;;;;;5.32;2.15;;;22.20;58.10;;;;;;5136117;27;20023;-63
2021/09/26 01:53:18;;;;;;;4.10;1.95;;;22.20;58.10;;;;;;5136120;27;20100;-63
2021/09/26 01:55:45;;;;;;;4.32;2.00;;;22.20;58.10;;;;;;5135963;27;20019;-63
2021/09/26 01:58:16;;;;;;;4.50;2.17;;;22.20;58.10;;;;;;5135992;27;20019;-62
2021/09/26 02:00:42;;;;;;;4.13;1.98;;;22.10;58.10;;;;;;5135806;27;20117;-62
2021/09/26 02:03:08;;;;;;;3.92;1.88;;;22.10;58.10;;;;;;5135865;27;20055;-64
2021/09/26 02:05:39;;;;;;;4.43;1.85;;;22.20;58.10;;;;;;5135771;27;20534;-63
2021/09/26 02:08:06;;;;;;;4.65;2.20;;;22.20;58.20;;;;;;5135767;27;20027;-63
2021/09/26 02:10:32;;;;;;;4.45;2.28;;;22.20;58.10;;;;;;5135734;27;20026;-63
2021/09/26 02:12:59;;;;;;;3.95;2.20;;;22.10;58.20;;;;;;5135651;27;20027;-63
2021/09/26 02:15:27;;;;;;;3.88;1.90;;;22.20;58.10;;;;;;5135488;27;20466;-63
2021/09/26 02:17:54;;;;;;;4.70;2.00;;;22.20;58.10;;;;;;5117184;27;20506;-63
2021/09/26 02:20:20;;;;;;;3.42;1.73;;;22.10;58.10;;;;;;5135698;27;20039;-63
2021/09/26 02:22:48;;;;;;;3.97;2.05;;;22.20;58.10;;;;;;5135717;27;20023;-63
2021/09/26 02:25:14;;;;;;;4.22;2.13;;;22.10;58.10;;;;;;5135878;27;20027;-63
2021/09/26 02:27:41;;;;;;;3.33;1.70;;;22.10;58.10;;;;;;5135306;27;20356;-63
2021/09/26 02:30:09;;;;;;;5.10;2.47;;;22.10;58.10;;;;;;5135289;27;20175;-63
2021/09/26 02:32:34;;;;;;;5.10;2.10;;;22.10;58.20;;;;;;5135263;27;20011;-62
2021/09/26 02:35:00;;;;;;;4.85;2.08;;;22.10;58.20;;;;;;5135349;27;20031;-63
2021/09/26 02:37:26;;;;;;;3.05;1.85;;;22.10;58.10;;;;;;5135143;27;20012;-62
2021/09/26 02:39:53;;;;;;;5.18;2.10;;;22.10;58.20;;;;;;5134802;27;20130;-63
2021/09/26 02:42:42;;;;;;;3.38;1.75;;;22.10;58.10;;;;;;5135525;27;20083;-63
2021/09/26 02:45:36;;;;;;;3.78;1.88;;;22.10;58.20;;;;;;5135071;27;20030;-63
2021/09/26 02:48:26;;;;;;;3.70;1.95;;;22.10;58.20;;;;;;5135033;27;20153;-63
2021/09/26 02:50:53;;;;;;;4.40;2.10;;;22.10;58.10;;;;;;5134910;27;20023;-64
2021/09/26 02:53:19;;;;;;;5.63;2.00;;;22.10;58.10;;;;;;5135124;27;20027;-63
2021/09/26 02:55:47;;;;;;;4.78;2.30;;;22.10;58.20;;;;;;5134749;27;20023;-63
2021/09/26 02:58:13;;;;;;;3.67;1.73;;;22.10;58.10;;;;;;5134731;27;20466;-63
2021/09/26 03:00:42;;;;;;;3.80;1.90;;;22.10;58.20;;;;;;5134868;27;20550;-63
2021/09/26 03:03:11;;;;;;;4.20;1.80;;;22.00;58.20;;;;;;5134584;27;20030;-63
2021/09/26 03:05:38;;;;;;;3.85;1.70;;;22.10;58.20;;;;;;5134599;27;20023;-62
2021/09/26 03:08:05;;;;;;;3.88;1.90;;;22.10;58.20;;;;;;5134590;27;20374;-63
2021/09/26 03:10:31;;;;;;;4.40;1.77;;;22.10;58.20;;;;;;5134468;27;20023;-62
2021/09/26 03:12:56;;;;;;;5.13;1.92;;;22.10;58.10;;;;;;5134554;27;20019;-63
2021/09/26 03:15:23;;;;;;;4.15;2.13;;;22.10;58.10;;;;;;5134684;27;20454;-63
2021/09/26 03:17:49;;;;;;;5.75;2.25;;;22.10;58.10;;;;;;5134626;27;20035;-63
2021/09/26 03:20:15;;;;;;;4.18;2.10;;;22.10;58.10;;;;;;5134137;27;20064;-63
2021/09/26 03:22:40;;;;;;;4.68;2.08;;;22.10;58.10;;;;;;5134315;27;20019;-63
2021/09/26 03:25:06;;;;;;;4.65;2.22;;;22.10;58.10;;;;;;5134391;27;20053;-63
2021/09/26 03:27:32;;;;;;;3.08;1.70;;;22.10;58.20;;;;;;5134177;27;20020;-64
2021/09/26 03:29:57;;;;;;;5.60;2.15;;;22.10;58.10;;;;;;5134262;27;20037;-63
2021/09/26 03:32:23;;;;;;;4.05;1.90;;;22.00;58.10;;;;;;5134111;27;20454;-63
2021/09/26 03:34:48;;;;;;;3.97;2.05;;;22.10;58.10;;;;;;5134081;27;20382;-61
2021/09/26 03:37:14;;;;;;;3.85;1.70;;;22.10;58.10;;;;;;5134207;27;20023;-63
2021/09/26 03:39:40;;;;;;;4.10;1.88;;;22.10;58.10;;;;;;5133872;27;20514;-63
2021/09/26 03:42:06;;;;;;;5.10;2.22;;;22.10;58.10;;;;;;5134124;27;20026;-62
2021/09/26 03:44:32;;;;;;;3.92;1.90;;;22.10;58.10;;;;;;5134323;27;20030;-62
2021/09/26 03:46:58;;;;;;;5.28;2.25;;;22.10;58.10;;;;;;5133518;27;20023;-61
2021/09/26 03:49:24;;;;;;;5.75;2.22;;;22.10;58.10;;;;;;5134240;27;20051;-61
2021/09/26 03:51:50;;;;;;;3.30;1.65;;;22.10;58.10;;;;;;5133994;27;20471;-62
2021/09/26 03:54:17;;;;;;;4.03;2.17;;;22.00;58.10;;;;;;5133909;28;20023;-61
2021/09/26 03:56:43;;;;;;;3.95;1.90;;;22.10;58.10;;;;;;5133932;28;20381;-62
2021/09/26 03:59:12;;;;;;;2.95;1.70;;;22.00;58.20;;;;;;5133840;28;20023;-62
2021/09/26 04:01:39;;;;;;;3.97;2.08;;;22.00;58.10;;;;;;5133763;28;20027;-61
2021/09/26 04:04:05;;;;;;;4.68;1.92;;;22.10;58.10;;;;;;5133828;28;20023;-61
2021/09/26 04:06:30;;;;;;;5.47;2.30;;;22.00;58.10;;;;;;5133920;28;20026;-61
2021/09/26 04:08:56;;;;;;;4.10;2.05;;;22.10;58.10;;;;;;5134115;28;20340;-61
2021/09/26 04:11:22;;;;;;;4.90;2.10;;;22.10;58.10;;;;;;5133851;28;20414;-61
2021/09/26 04:13:47;;;;;;;3.97;2.00;;;22.00;58.10;;;;;;5133709;28;20016;-62
2021/09/26 04:16:13;;;;;;;4.03;1.95;;;22.10;58.10;;;;;;5133627;28;20031;-61
2021/09/26 04:18:39;;;;;;;4.32;2.33;;;22.10;58.10;;;;;;5133588;28;20027;-61
2021/09/26 04:21:05;;;;;;;4.93;2.28;;;22.10;58.10;;;;;;5115141;28;20035;-61
2021/09/26 04:23:31;;;;;;;3.85;2.00;;;22.10;58.10;;;;;;5133667;28;20016;-62
2021/09/26 04:25:56;;;;;;;3.35;1.90;;;22.10;58.10;;;;;;5133623;28;20035;-61
2021/09/26 04:28:22;;;;;;;3.85;1.80;;;22.10;58.10;;;;;;5134118;28;20027;-62
2021/09/26 04:30:48;;;;;;;3.13;1.83;;;22.10;58.00;;;;;;5133521;28;20080;-62
2021/09/26 04:33:14;;;;;;;3.85;2.10;;;22.10;58.10;;;;;;5133722;28;20514;-62
2021/09/26 04:35:39;;;;;;;5.05;2.15;;;22.10;58.10;;;;;;5133776;28;20106;-61
2021/09/26 04:38:05;;;;;;;4.10;1.77;;;22.10;58.00;;;;;;5133355;28;20079;-62
2021/09/26 04:40:31;;;;;;;4.55;2.00;;;22.10;58.00;;;;;;5133524;28;20027;-62
2021/09/26 04:42:56;;;;;;;5.95;1.95;;;22.10;58.10;;;;;;5133534;28;20023;-62
2021/09/26 04:45:22;;;;;;;3.38;1.92;;;22.10;58.00;;;;;;5133388;28;20033;-61
2021/09/26 04:47:48;;;;;;;4.45;1.70;;;22.20;58.00;;;;;;5133686;28;20126;-61
2021/09/26 04:50:14;;;;;;;3.85;2.17;;;22.10;58.00;;;;;;5133398;28;20488;-62
2021/09/26 04:52:39;;;;;;;2.83;1.40;;;22.10;58.00;;;;;;5133387;28;20038;-62
2021/09/26 04:55:06;;;;;;;3.28;1.70;;;22.10;58.00;;;;;;5133243;28;20024;-61
2021/09/26 04:57:32;;;;;;;3.85;1.95;;;22.10;58.00;;;;;;5133314;27;20026;-62
2021/09/26 04:59:57;;;;;;;4.55;1.85;;;22.20;58.00;;;;;;5117688;27;20027;-63
2021/09/26 05:02:23;;;;;;;4.78;2.20;;;22.10;58.00;;;;;;5137081;27;20023;-63
2021/09/26 05:04:49;;;;;;;4.45;1.95;;;22.20;58.00;;;;;;5136991;27;20027;-63
2021/09/26 05:07:14;;;;;;;3.92;2.03;;;22.20;58.00;;;;;;5136964;27;20072;-63
2021/09/26 05:09:40;;;;;;;5.25;2.35;;;22.20;58.00;;;;;;5137281;27;20059;-63
2021/09/26 05:12:06;;;;;;;4.22;1.80;;;22.20;58.00;;;;;;5136856;27;20112;-62
2021/09/26 05:14:32;;;;;;;3.88;1.80;;;22.20;58.00;;;;;;5137080;27;20027;-63
2021/09/26 05:16:57;;;;;;;4.78;2.17;;;22.20;58.00;;;;;;5136731;27;20452;-61
2021/09/26 05:19:23;;;;;;;4.25;2.13;;;22.20;58.00;;;;;;5136822;27;20076;-61
2021/09/26 05:21:49;;;;;;;4.22;2.15;;;22.20;58.00;;;;;;5136670;27;20506;-63
2021/09/26 05:24:14;;;;;;;3.38;1.70;;;22.20;58.00;;;;;;5136668;27;20065;-61
2021/09/26 05:26:40;;;;;;;4.63;1.90;;;22.20;58.00;;;;;;5137188;27;20370;-61
2021/09/26 05:29:06;;;;;;;3.50;1.85;;;22.20;58.00;;;;;;5136827;27;20047;-63
2021/09/26 05:31:33;;;;;;;4.90;2.00;;;22.20;58.00;;;;;;5136527;27;20106;-64
2021/09/26 05:33:59;;;;;;;4.20;1.92;;;22.20;58.00;;;;;;5136550;27;20023;-62
2021/09/26 05:36:25;;;;;;;4.10;2.10;;;22.20;58.00;;;;;;5136632;27;20071;-61
2021/09/26 05:38:51;;;;;;;3.72;1.70;;;22.20;57.90;;;;;;5136221;27;20035;-64
2021/09/26 05:41:17;;;;;;;5.90;2.05;;;22.20;58.00;;;;;;5117854;27;20082;-61
2021/09/26 05:43:43;;;;;;;4.07;1.98;;;22.20;58.00;;;;;;5136282;27;20480;-63
2021/09/26 05:46:08;;;;;;;4.55;2.03;;;22.30;57.90;;;;;;5136476;27;20023;-64
2021/09/26 05:48:34;;;;;;;4.90;2.08;;;22.20;57.90;;;;;;5136203;27;20355;-64
2021/09/26 05:50:59;;;;;;;3.78;1.90;;;22.30;58.00;;;;;;5117796;27;20058;-63
2021/09/26 05:53:25;;;;;;;3.45;1.70;;;22.30;57.90;;;;;;5117679;27;20104;-63
2021/09/26 05:55:51;;;;;;;4.10;1.88;;;22.20;57.90;;;;;;5136021;27;20518;-63
2021/09/26 05:58:16;;;;;;;4.68;2.10;;;22.30;57.90;;;;;;5135995;27;20446;-63
2021/09/26 06:00:42;;;;;;;3.60;1.63;;;22.30;58.00;;;;;;5135832;27;20066;-62
2021/09/26 06:03:12;;;;;;;4.57;1.98;;;22.30;57.90;;;;;;5136049;27;20043;-63
2021/09/26 06:05:38;;;;;;;4.53;2.03;;;22.30;57.90;;;;;;5135831;27;20463;-63
2021/09/26 06:08:04;;;;;;;4.32;2.20;;;22.30;57.90;;;;;;5135709;27;20023;-63
2021/09/26 06:10:29;;;;;;;4.25;1.85;;;22.30;57.90;;;;;;5135390;27;20110;-63
2021/09/26 06:12:55;;;;;;;3.85;1.90;;;22.30;57.90;;;;;;5135681;27;20027;-64
2021/09/26 06:15:21;;;;;;;5.07;2.30;;;22.30;57.90;;;;;;5135642;27;20026;-64
2021/09/26 06:17:46;;;;;;;4.18;2.08;;;22.30;57.80;;;;;;5135675;27;20043;-63
2021/09/26 06:20:13;;;;;;;4.80;2.13;;;22.30;57.90;;;;;;5135491;27;20100;-63
2021/09/26 06:22:38;;;;;;;4.13;1.75;;;22.30;57.90;;;;;;5135519;27;20470;-63
2021/09/26 06:25:05;;;;;;;3.47;1.95;;;22.40;57.90;;;;;;5135456;27;20031;-63
2021/09/26 06:27:31;;;;;;;3.33;1.73;;;22.40;57.80;;;;;;5135330;27;20031;-63
2021/09/26 06:29:57;;;;;;;4.72;2.20;;;22.40;57.80;;;;;;5135641;27;20463;-63
2021/09/26 06:32:23;;;;;;;4.85;2.13;;;22.40;57.80;;;;;;5135273;27;20027;-63
2021/09/26 06:34:49;;;;;;;3.63;1.90;;;22.40;57.80;;;;;;5135299;27;20477;-63
2021/09/26 06:37:15;;;;;;;3.25;1.67;;;22.40;57.80;;;;;;5135413;27;20034;-63
2021/09/26 06:39:41;;;;;;;3.78;2.00;;;22.40;57.80;;;;;;5116448;27;20043;-63
2021/09/26 06:42:06;;;;;;;3.22;1.60;;;22.40;57.80;;;;;;5135063;27;20031;-63
2021/09/26 06:44:32;;;;;;;3.35;1.65;;;22.40;57.80;;;;;;5116596;27;20027;-63
2021/09/26 06:46:57;;;;;;;3.50;1.83;;;22.40;57.80;;;;;;5135172;27;20390;-63
2021/09/26 06:49:23;;;;;;;4.10;2.05;;;22.40;57.80;;;;;;5134914;27;20024;-63
2021/09/26 06:51:49;;;;;;;3.08;1.40;;;22.40;57.70;;;;;;5134878;27;20031;-63
2021/09/26 06:54:14;;;;;;;3.88;1.80;;;22.50;57.70;;;;;;5134845;27;20424;-62
2021/09/26 06:56:40;;;;;;;3.72;1.77;;;22.40;57.70;;;;;;5134999;27;20023;-62
2021/09/26 06:59:05;;;;;;;3.58;1.75;;;22.40;57.70;;;;;;5134980;27;20524;-62
2021/09/26 07:01:32;;;;;;;3.63;2.03;;;22.50;57.70;;;;;;5134921;27;20493;-62
2021/09/26 07:03:59;;;;;;;3.75;1.90;;;22.50;57.70;;;;;;5134525;27;20355;-62
2021/09/26 07:06:24;;;;;;;5.22;2.10;;;22.50;57.70;;;;;;5134688;27;20074;-63
2021/09/26 07:08:50;;;;;;;4.70;2.15;;;22.50;57.70;;;;;;5134571;27;20470;-62
2021/09/26 07:11:15;;;;;;;3.55;1.80;;;22.50;57.70;;;;;;5134808;27;20034;-62
2021/09/26 07:13:41;;;;;;;3.88;1.77;;;22.50;57.70;;;;;;5134537;27;20055;-63
2021/09/26 07:16:06;;;;;;;3.20;1.75;;;22.50;57.70;;;;;;5134719;27;20015;-63
2021/09/26 07:18:32;;;;;;;3.92;2.13;;;22.50;57.70;;;;;;5134452;27;20031;-63
2021/09/26 07:20:57;;;;;;;3.35;1.77;;;22.50;57.60;;;;;;5134016;27;20035;-63
2021/09/26 07:23:23;;;;;;;4.15;1.98;;;22.50;57.60;;;;;;5134210;27;20027;-63
2021/09/26 07:25:48;;;;;;;3.95;1.90;;;22.60;57.50;;;;;;5134230;27;20065;-63
2021/09/26 07:28:14;;;;;;;3.63;1.80;;;22.50;57.50;;;;;;5134529;27;20106;-63
2021/09/26 07:30:40;;;;;;;2.97;1.50;;;22.60;57.50;;;;;;5134272;27;20102;-63
2021/09/26 07:33:05;;;;;;;3.83;2.08;;;22.60;57.50;;;;;;5134334;27;20031;-63
2021/09/26 07:35:31;;;;;;;4.47;2.03;;;22.60;57.50;;;;;;5134171;27;20046;-63
2021/09/26 07:37:56;;;;;;;3.88;1.80;;;22.60;57.50;;;;;;5134220;27;20064;-62
2021/09/26 07:40:22;;;;;;;3.55;1.70;;;22.60;57.40;;;;;;5134044;27;20057;-62
2021/09/26 07:42:49;;;;;;;2.97;1.70;;;22.60;57.50;;;;;;5134350;27;20039;-63
2021/09/26 07:45:14;;;;;;;3.67;1.90;;;22.60;57.50;;;;;;5134125;27;20102;-63
2021/09/26 07:47:41;;;;;;;3.97;1.80;;;22.60;57.50;;;;;;5134055;27;20015;-63
2021/09/26 07:50:07;;;;;;;4.28;2.03;;;22.70;57.50;;;;;;5134000;27;20098;-63
2021/09/26 07:52:33;;;;;;;3.17;1.80;;;22.70;57.40;;;;;;5115466;27;20443;-62
2021/09/26 07:54:58;;;;;;;3.20;1.88;;;22.70;57.50;;;;;;5133911;28;20031;-62
2021/09/26 07:57:25;;;;;;;2.60;1.33;;;22.70;57.30;;;;;;5134142;28;20076;-63
2021/09/26 07:59:54;;;;;;;3.60;1.85;;;22.80;57.30;;;;;;5133940;28;20382;-63
2021/09/26 08:02:20;;;;;;;3.90;1.90;;;22.70;57.30;;;;;;5133771;28;20070;-62
2021/09/26 08:04:45;;;;;;;4.03;1.83;;;22.80;57.40;;;;;;5134100;28;20081;-62
2021/09/26 08:07:11;;;;;;;5.05;1.85;;;22.70;57.40;;;;;;5133718;28;20084;-62
2021/09/26 08:09:37;;;;;;;3.60;1.60;;;22.80;57.30;;;;;;5133667;28;20034;-63
2021/09/26 08:12:05;;;;;;;4.30;1.88;;;22.70;57.30;;;;;;5133752;28;20176;-63
2021/09/26 08:14:31;;;;;;;3.20;1.60;;;22.80;57.30;;;;;;5133631;28;20034;-63
2021/09/26 08:16:57;;;;;;;2.78;1.40;;;22.80;57.20;;;;;;5133730;28;20049;-63
2021/09/26 08:19:22;;;;;;;3.10;1.63;;;22.80;57.20;;;;;;5133558;28;20023;-63
2021/09/26 08:21:49;;;;;;;3.65;2.03;;;22.90;57.20;;;;;;5133652;28;20039;-63
2021/09/26 08:24:15;;;;;;;4.07;1.80;;;22.90;57.20;;;;;;5115258;28;20023;-63
2021/09/26 08:26:40;;;;;;;3.17;1.70;;;22.80;57.20;;;;;;5133914;28;20030;-63
2021/09/26 08:29:06;;;;;;;1.98;1.23;;;22.90;57.20;;;;;;5133746;28;20015;-63
2021/09/26 08:31:32;;;;;;;3.78;1.73;;;22.90;57.20;;;;;;5133550;28;20059;-63
2021/09/26 08:33:57;;;;;;;4.55;1.60;;;22.90;57.20;;;;;;5118319;27;20106;-62
2021/09/26 08:36:24;;;;;;;4.15;1.70;;;22.90;57.20;;;;;;5137725;27;20023;-62
2021/09/26 08:38:49;;;;;;;3.38;1.60;;;22.90;57.20;;;;;;5137386;27;20043;-63
2021/09/26 08:41:17;;;;;;;3.17;1.75;;;22.90;57.10;;;;;;5137622;27;20042;-62
2021/09/26 08:43:42;;;;;;;2.92;1.50;;;22.90;57.20;;;;;;5137517;27;20374;-62
2021/09/26 08:46:12;;;;;;;2.40;1.40;;;22.90;57.20;;;;;;5137478;27;20019;-62
2021/09/26 08:48:38;;;;;;;3.35;1.58;;;22.90;57.20;;;;;;5137612;27;20083;-63
2021/09/26 08:51:04;;;;;;;3.47;1.80;;;22.90;57.20;;;;;;5137279;27;20023;-63
2021/09/26 08:53:30;;;;;;;3.10;1.70;;;22.90;57.20;;;;;;5137219;27;20031;-63
2021/09/26 08:55:56;;;;;;;4.10;1.70;;;22.90;57.10;;;;;;5137405;27;20019;-62
2021/09/26 08:58:22;;;;;;;3.53;1.52;;;22.90;57.10;;;;;;5137223;27;20020;-63
2021/09/26 09:00:48;;;;;;;3.75;1.67;;;23.00;57.10;;;;;;5137102;27;20031;-63
2021/09/26 09:03:15;;;;;;;3.22;1.67;;;23.00;57.10;;;;;;5136993;27;20480;-65
2021/09/26 09:05:42;;;;;;;3.15;1.70;;;23.00;57.10;;;;;;5136908;27;20023;-63
2021/09/26 09:08:19;;;;;;;2.45;1.30;;;23.00;57.10;;;;;;5136931;27;20475;-64
2021/09/26 09:10:55;;;;;;;3.28;1.65;;;23.00;57.10;;;;;;5137152;27;20103;-62
2021/09/26 09:13:31;;;;;;;3.03;1.52;;;23.00;57.00;;;;;;5137194;27;20022;-63
2021/09/26 09:16:13;;;;;;;2.80;1.30;;;23.00;57.00;;;;;;5136874;27;20029;-62
2021/09/26 09:18:51;;;;;;;3.75;1.80;;;23.10;56.90;;;;;;5136842;27;20090;-63
2021/09/26 09:21:21;;;;;;;3.10;1.52;;;23.10;56.90;;;;;;5136814;27;20386;-63
2021/09/26 09:23:49;;;;;;;3.53;1.80;;;23.10;56.80;;;;;;5136995;27;20019;-63
2021/09/26 09:26:29;;;;;;;2.42;1.42;;;23.10;56.80;;;;;;5136634;27;20390;-63
2021/09/26 09:28:56;;;;;;;3.30;1.50;;;23.10;56.80;;;;;;5136872;27;20035;-64
2021/09/26 09:31:21;;;;;;;3.60;1.60;;;23.10;56.90;;;;;;5136533;27;20019;-63
2021/09/26 09:33:47;;;;;;;3.28;1.50;;;23.10;56.80;;;;;;5118136;27;20110;-63
2021/09/26 09:36:39;;;;;;;2.83;1.50;;;23.20;56.80;;;;;;5136656;27;20038;-62
2021/09/26 09:39:09;;;;;;;3.03;1.55;;;23.20;56.80;;;;;;5131460;27;20457;-62
2021/09/26 09:41:36;;;;;;;3.50;1.60;;;23.20;56.70;;;;;;5136433;27;20039;-63
2021/09/26 09:44:08;;;;;;;3.33;1.55;;;23.20;56.70;;;;;;5135666;27;20019;-63
2021/09/26 09:46:42;;;;;;;3.25;1.77;;;23.20;56.70;;;;;;5136226;27;20023;-63
2021/09/26 09:49:22;;;;;;;3.97;1.77;;;23.20;56.70;;;;;;5136259;27;20068;-63
2021/09/26 09:51:49;;;;;;;2.38;1.33;;;23.20;56.70;;;;;;5136377;27;20068;-63
2021/09/26 09:54:15;;;;;;;3.17;1.60;;;23.20;56.70;;;;;;5135997;27;20023;-63
2021/09/26 09:56:43;;;;;;;2.05;1.27;;;23.20;56.80;;;;;;5135974;27;20535;-63
2021/09/26 09:59:11;;;;;;;3.10;1.60;;;23.30;56.70;;;;;;5135859;27;20467;-63
2021/09/26 10:01:38;;;;;;;4.15;1.77;;;23.30;56.70;;;;;;5136185;27;20035;-63
2021/09/26 10:04:09;;;;;;;3.22;1.58;;;23.30;56.70;;;;;;5135692;27;20106;-63
2021/09/26 10:06:36;;;;;;;2.58;1.55;;;23.30;56.60;;;;;;5136075;27;20059;-63
2021/09/26 10:09:26;;;;;;;2.03;1.20;;;23.30;56.60;;;;;;5135827;27;20015;-62
2021/09/26 10:11:56;;;;;;;2.80;1.50;;;23.30;56.60;;;;;;5135998;27;20076;-63
2021/09/26 10:14:24;;;;;;;2.50;1.35;;;23.30;56.70;;;;;;5135545;27;20090;-62
2021/09/26 10:16:51;;;;;;;2.92;1.45;;;23.30;56.60;;;;;;5135600;27;20041;-63
2021/09/26 10:19:22;;;;;;;3.40;1.63;;;23.40;56.60;;;;;;5135566;27;20408;-63
2021/09/26 10:21:50;;;;;;;2.63;1.40;;;23.40;56.60;;;;;;5135532;27;20495;-63
2021/09/26 10:24:19;;;;;;;2.45;1.42;;;23.40;56.60;;;;;;5135521;27;20027;-62
2021/09/26 10:26:45;;;;;;;2.22;1.40;;;23.40;56.50;;;;;;5135474;27;20439;-62
2021/09/26 10:29:12;;;;;;;3.33;1.50;;;23.50;56.40;;;;;;5135631;27;20042;-63
2021/09/26 10:31:39;;;;;;;3.08;1.55;;;23.50;56.30;;;;;;5135220;27;20028;-62
2021/09/26 10:34:05;;;;;;;4.03;1.60;;;23.50;56.10;;;;;;5135141;27;20411;-62
2021/09/26 10:36:34;;;;;;;3.17;1.50;;;23.50;56.10;;;;;;5135206;27;20027;-62
2021/09/26 10:39:01;;;;;;;2.92;1.50;;;23.50;56.20;;;;;;5134930;27;20042;-62
2021/09/26 10:41:26;;;;;;;2.88;1.58;;;23.50;56.30;;;;;;5134937;27;20387;-62
2021/09/26 10:43:52;;;;;;;2.97;1.42;;;23.60;56.10;;;;;;5135149;27;20020;-62
2021/09/26 10:46:23;;;;;;;3.88;1.42;;;23.70;55.90;;;;;;5116378;27;20035;-62
2021/09/26 10:49:04;;;;;;;3.08;1.58;;;23.70;55.90;;;;;;5134814;27;20043;-62
2021/09/26 10:51:56;;;;;;;4.32;1.90;;;23.70;55.90;;;;;;5116414;27;20409;-62
2021/09/26 10:54:22;;;;;;;2.97;1.60;;;23.70;56.00;;;;;;5116434;27;20164;-63
2021/09/26 10:56:53;;;;;;;2.63;1.30;;;23.70;56.00;;;;;;5115366;27;20047;-62
2021/09/26 10:59:21;;;;;;;2.65;1.30;;;23.70;56.10;;;;;;5134714;27;20034;-63
2021/09/26 11:01:47;;;;;;;2.63;1.52;;;23.70;56.00;;;;;;5134744;27;20023;-62
2021/09/26 11:04:14;;;;;;;3.90;1.60;;;23.80;55.80;;;;;;5134632;27;20020;-62
2021/09/26 11:06:41;;;;;;;3.03;1.55;;;23.90;55.70;;;;;;5134576;27;20023;-62
2021/09/26 11:09:10;;;;;;;3.65;1.67;;;23.90;55.70;;;;;;5134666;27;20085;-62
2021/09/26 11:11:47;;;;;;;2.45;1.40;;;24.00;55.60;;;;;;5134447;27;20484;-62
2021/09/26 11:14:14;;;;;;;3.25;1.52;;;24.00;55.40;;;;;;5134485;27;20058;-63
2021/09/26 11:16:56;;;;;;;2.20;1.25;;;24.10;55.20;;;;;;5116036;27;20026;-63
2021/09/26 11:19:26;;;;;;;2.70;1.48;;;24.10;55.30;;;;;;5134594;27;20105;-62
2021/09/26 11:22:03;;;;;;;3.17;1.70;;;24.10;55.20;;;;;;5134309;27;20067;-63
2021/09/26 11:24:38;;;;;;;2.50;1.50;;;24.10;55.30;;;;;;5134439;27;20020;-62
2021/09/26 11:27:16;;;;;;;3.95;1.90;;;24.10;55.40;;;;;;5134150;27;20049;-62
2021/09/26 11:29:42;;;;;;;2.45;1.27;;;24.00;55.60;;;;;;5134578;27;20339;-62
2021/09/26 11:32:28;;;;;;;3.20;1.52;;;24.10;55.40;;;;;;5134152;27;20075;-62
2021/09/26 11:34:56;;;;;;;2.55;1.40;;;24.10;55.40;;;;;;5099079;27;20034;-63
2021/09/26 11:37:40;;;;;;;3.35;1.55;;;24.10;55.40;;;;;;5134151;27;20024;-62
2021/09/26 11:40:10;;;;;;;;;;;24.30;55.10;;;;;;5134479;27;20123;-62
2021/09/26 11:42:43;;;;;;;3.72;1.70;;;24.40;54.90;;;;;;5134068;27;19903;-62
2021/09/26 11:45:12;;;;;;;2.92;1.55;;;24.40;54.70;;;;;;5134068;27;20046;-62
2021/09/26 11:47:37;;;;;;;3.22;1.60;;;24.50;54.60;;;;;;5115429;27;20351;-62
2021/09/26 11:50:08;;;;;;;2.72;1.40;;;24.50;54.70;;;;;;5133692;27;20027;-62
2021/09/26 11:52:40;;;;;;;2.95;1.67;;;24.50;54.60;;;;;;5133787;27;20029;-62
2021/09/26 11:55:07;;;;;;;2.50;1.50;;;24.60;54.50;;;;;;5133990;28;20055;-62
2021/09/26 11:57:33;;;;;;;3.25;1.67;;;24.70;54.20;;;;;;5133649;27;20024;-62
2021/09/26 11:59:59;;;;;;;2.97;1.40;;;24.70;54.30;;;;;;5133642;28;20031;-61
2021/09/26 12:02:24;;;;;;;3.78;1.80;;;24.80;54.20;;;;;;5133562;28;20027;-61
2021/09/26 12:04:50;;;;;;;3.33;1.73;;;24.80;54.00;;;;;;5133690;28;20526;-62
2021/09/26 12:07:16;;;;;;;2.53;1.45;;;24.90;54.00;;;;;;5133931;27;20050;-62
2021/09/26 12:09:46;;;;;;;2.58;1.20;;;24.90;53.90;;;;;;5138058;27;20047;-62
2021/09/26 12:12:19;;;;;;;2.58;1.38;;;24.90;53.80;;;;;;5138000;27;20023;-62
2021/09/26 12:14:51;;;;;;;3.42;1.60;;;24.90;53.90;;;;;;5137895;27;20023;-62
2021/09/26 12:17:25;;;;;;;2.97;1.45;;;24.80;54.20;;;;;;5137827;27;20027;-62
2021/09/26 12:19:59;;;;;;;2.65;1.25;;;24.90;54.10;;;;;;5137614;27;20388;-62
2021/09/26 12:22:27;;;;;;;2.80;1.38;;;24.90;54.20;;;;;;5137700;27;20023;-61
2021/09/26 12:24:58;;;;;;;2.47;1.30;;;24.70;54.50;;;;;;5137634;27;20023;-61
2021/09/26 12:27:29;;;;;;;2.90;1.50;;;24.70;54.60;;;;;;5137724;27;20037;-61
2021/09/26 12:29:57;;;;;;;2.28;1.40;;;24.70;54.70;;;;;;5119155;27;20030;-61
2021/09/26 12:32:26;;;;;;;3.72;1.70;;;24.70;54.60;;;;;;5137514;27;20390;-61
2021/09/26 12:34:53;;;;;;;2.13;1.30;;;24.70;54.60;;;;;;5137537;27;20075;-61
2021/09/26 12:37:23;;;;;;;2.95;1.30;;;24.70;54.70;;;;;;5137409;27;20024;-64
2021/09/26 12:39:51;;;;;;;3.00;1.35;;;24.60;54.80;;;;;;5137249;27;20126;-61
2021/09/26 12:42:24;;;;;;;2.85;1.40;;;24.60;54.90;;;;;;5137306;27;20378;-62
2021/09/26 12:44:50;;;;;;;2.37;1.30;;;24.50;55.00;;;;;;5137449;27;20027;-61
2021/09/26 12:47:20;;;;;;;2.90;1.42;;;24.50;55.10;;;;;;5137552;27;20031;-61
2021/09/26 12:49:47;;;;;;;3.05;1.50;;;24.50;55.20;;;;;;5137359;27;20373;-62
2021/09/26 12:52:27;;;;;;;3.20;1.48;;;24.50;55.30;;;;;;5137664;27;20057;-61
2021/09/26 12:54:58;;;;;;;2.60;1.30;;;24.50;55.30;;;;;;5137229;27;20106;-61